sensor_id;sensor_type;location;lat;lon;timestamp;pressure;altitude;pressure_sealevel;temperature;humidity
72857;BME280;62742;52.136;4.500;2023-03-26T00:01:34;100753.84;;;7.65;89.88
72857;BME280;62742;52.136;4.500;2023-03-26T00:04:04;100749.53;;;7.55;90.89
72857;BME280;62742;52.136;4.500;2023-03-26T00:06:33;100748.66;;;7.58;91.03
72857;BME280;62742;52.136;4.500;2023-03-26T00:09:07;100749.53;;;7.55;92.17
72857;BME280;62742;52.136;4.500;2023-03-26T00:11:34;100752.09;;;7.61;91.69
72857;BME280;62742;52.136;4.500;2023-03-26T00:14:01;100747.72;;;7.63;91.89
72857;BME280;62742;52.136;4.500;2023-03-26T00:16:28;100747.72;;;7.63;92.33
72857;BME280;62742;52.136;4.500;2023-03-26T00:18:56;100747.78;;;7.57;93.12
72857;BME280;62742;52.136;4.500;2023-03-26T00:21:23;100743.41;;;7.59;93.57
72857;BME280;62742;52.136;4.500;2023-03-26T00:23:54;100736.41;;;7.61;93.83
72857;BME280;62742;52.136;4.500;2023-03-26T00:26:23;100733.72;;;7.74;93.65
72857;BME280;62742;52.136;4.500;2023-03-26T00:28:49;100731.09;;;7.77;93.52
72857;BME280;62742;52.136;4.500;2023-03-26T00:31:15;100717.19;;;7.75;93.41
72857;BME280;62742;52.136;4.500;2023-03-26T00:33:42;100715.47;;;7.66;93.75
72857;BME280;62742;52.136;4.500;2023-03-26T00:36:10;100708.50;;;7.66;94.29
72857;BME280;62742;52.136;4.500;2023-03-26T00:38:42;100715.47;;;7.67;94.39
72857;BME280;62742;52.136;4.500;2023-03-26T00:41:10;100709.31;;;7.76;94.49
72857;BME280;62742;52.136;4.500;2023-03-26T00:43:48;100705.88;;;7.71;94.17
72857;BME280;62742;52.136;4.500;2023-03-26T00:46:16;100717.19;;;7.68;94.13
72857;BME280;62742;52.136;4.500;2023-03-26T00:48:43;100707.63;;;7.66;94.31
72857;BME280;62742;52.136;4.500;2023-03-26T00:51:10;100704.13;;;7.68;94.62
72857;BME280;62742;52.136;4.500;2023-03-26T00:53:40;100699.78;;;7.67;94.01
72857;BME280;62742;52.136;4.500;2023-03-26T00:56:07;100692.81;;;7.66;93.45
72857;BME280;62742;52.136;4.500;2023-03-26T00:58:34;100691.03;;;7.68;93.40
72857;BME280;62742;52.136;4.500;2023-03-26T01:01:03;100695.41;;;7.70;93.81
72857;BME280;62742;52.136;4.500;2023-03-26T01:03:32;100685.81;;;7.68;93.75
72857;BME280;62742;52.136;4.500;2023-03-26T01:06:01;100687.56;;;7.66;93.22
72857;BME280;62742;52.136;4.500;2023-03-26T01:08:45;100685.88;;;7.65;93.22
72857;BME280;62742;52.136;4.500;2023-03-26T01:11:21;100682.34;;;7.66;93.11
72857;BME280;62742;52.136;4.500;2023-03-26T01:13:55;100675.44;;;7.59;92.79
72857;BME280;62742;52.136;4.500;2023-03-26T01:19:52;100661.50;;;7.57;92.09
72857;BME280;62742;52.136;4.500;2023-03-26T01:22:12;100659.84;;;7.44;92.42
72857;BME280;62742;52.136;4.500;2023-03-26T01:24:41;100649.38;;;7.41;92.71
72857;BME280;62742;52.136;4.500;2023-03-26T01:27:13;100658.97;;;7.40;92.90
72857;BME280;62742;52.136;4.500;2023-03-26T01:29:51;100652.06;;;7.35;92.68
72857;BME280;62742;52.136;4.500;2023-03-26T01:46:03;100640.84;;;7.08;94.07
72857;BME280;62742;52.136;4.500;2023-03-26T01:48:34;100630.97;;;7.59;91.33
72857;BME280;62742;52.136;4.500;2023-03-26T01:51:03;100631.84;;;7.58;89.19
72857;BME280;62742;52.136;4.500;2023-03-26T01:53:30;100616.44;;;7.15;90.61
72857;BME280;62742;52.136;4.500;2023-03-26T01:56:08;100622.63;;;6.94;92.00
72857;BME280;62742;52.136;4.500;2023-03-26T02:07:26;100601.00;;;6.60;93.24
72857;BME280;62742;52.136;4.500;2023-03-26T02:10:14;100606.22;;;6.57;93.06
72857;BME280;62742;52.136;4.500;2023-03-26T02:12:54;100607.13;;;6.49;93.43
72857;BME280;62742;52.136;4.500;2023-03-26T02:15:22;100603.63;;;6.52;93.66
72857;BME280;62742;52.136;4.500;2023-03-26T02:17:49;100596.66;;;6.52;93.95
72857;BME280;62742;52.136;4.500;2023-03-26T02:20:17;100599.31;;;6.51;94.35
72857;BME280;62742;52.136;4.500;2023-03-26T02:22:45;100595.78;;;6.63;94.22
72857;BME280;62742;52.136;4.500;2023-03-26T02:25:16;100592.28;;;6.59;94.29
72857;BME280;62742;52.136;4.500;2023-03-26T02:27:44;100597.53;;;6.54;94.07
72857;BME280;62742;52.136;4.500;2023-03-26T02:30:13;100601.03;;;6.50;93.90
72857;BME280;62742;52.136;4.500;2023-03-26T02:32:41;100587.97;;;6.52;94.21
72857;BME280;62742;52.136;4.500;2023-03-26T02:35:11;100592.31;;;6.51;94.95
72857;BME280;62742;52.136;4.500;2023-03-26T02:37:38;100588.81;;;6.55;94.70
72857;BME280;62742;52.136;4.500;2023-03-26T02:40:05;100580.13;;;6.60;95.86
72857;BME280;62742;52.136;4.500;2023-03-26T02:42:36;100573.16;;;6.63;96.13
72857;BME280;62742;52.136;4.500;2023-03-26T02:45:03;100580.06;;;6.78;95.80
72857;BME280;62742;52.136;4.500;2023-03-26T02:47:30;100573.03;;;6.86;96.10
72857;BME280;62742;52.136;4.500;2023-03-26T02:49:58;100566.09;;;6.82;97.04
72857;BME280;62742;52.136;4.500;2023-03-26T02:52:26;100563.47;;;6.84;97.49
72857;BME280;62742;52.136;4.500;2023-03-26T02:54:52;100566.09;;;6.88;98.04
72857;BME280;62742;52.136;4.500;2023-03-26T02:57:19;100559.09;;;6.93;98.60
72857;BME280;62742;52.136;4.500;2023-03-26T02:59:45;100560.81;;;6.96;99.22
72857;BME280;62742;52.136;4.500;2023-03-26T03:02:11;100557.28;;;7.02;99.56
72857;BME280;62742;52.136;4.500;2023-03-26T03:04:38;100560.72;;;7.10;99.92
72857;BME280;62742;52.136;4.500;2023-03-26T03:07:04;100551.13;;;7.12;100.00
72857;BME280;62742;52.136;4.500;2023-03-26T03:09:30;100553.72;;;7.12;100.00
72857;BME280;62742;52.136;4.500;2023-03-26T03:11:56;100552.84;;;7.18;100.00
72857;BME280;62742;52.136;4.500;2023-03-26T03:14:22;100551.91;;;7.26;99.59
72857;BME280;62742;52.136;4.500;2023-03-26T03:16:49;100551.00;;;7.34;99.49
72857;BME280;62742;52.136;4.500;2023-03-26T03:19:15;100545.78;;;7.29;99.53
72857;BME280;62742;52.136;4.500;2023-03-26T03:21:41;100539.69;;;7.28;100.00
72857;BME280;62742;52.136;4.500;2023-03-26T03:24:09;100534.47;;;7.27;100.00
72857;BME280;62742;52.136;4.500;2023-03-26T03:26:36;100540.53;;;7.32;100.00
72857;BME280;62742;52.136;4.500;2023-03-26T03:29:02;100539.66;;;7.35;100.00
72857;BME280;62742;52.136;4.500;2023-03-26T03:31:29;100534.31;;;7.50;100.00
72857;BME280;62742;52.136;4.500;2023-03-26T03:33:55;100531.72;;;7.48;100.00
72857;BME280;62742;52.136;4.500;2023-03-26T03:36:21;100538.66;;;7.48;99.98
72857;BME280;62742;52.136;4.500;2023-03-26T03:38:48;100533.41;;;7.51;100.00
72857;BME280;62742;52.136;4.500;2023-03-26T03:41:15;100528.16;;;7.59;99.94
72857;BME280;62742;52.136;4.500;2023-03-26T03:43:43;100523.34;;;8.02;97.46
72857;BME280;62742;52.136;4.500;2023-03-26T03:46:10;100511.03;;;8.15;96.00
72857;BME280;62742;52.136;4.500;2023-03-26T03:48:36;100514.34;;;8.28;94.11
72857;BME280;62742;52.136;4.500;2023-03-26T03:51:03;100510.03;;;8.26;94.99
72857;BME280;62742;52.136;4.500;2023-03-26T03:53:30;100511.22;;;7.95;95.30
72857;BME280;62742;52.136;4.500;2023-03-26T03:55:57;100509.72;;;7.73;96.71
72857;BME280;62742;52.136;4.500;2023-03-26T03:58:24;100504.53;;;7.66;97.71
72857;BME280;62742;52.136;4.500;2023-03-26T04:00:53;100497.63;;;7.59;98.63
72857;BME280;62742;52.136;4.500;2023-03-26T04:03:25;100495.94;;;7.57;99.27
72857;BME280;62742;52.136;4.500;2023-03-26T04:05:53;100489.69;;;7.70;99.23
72857;BME280;62742;52.136;4.500;2023-03-26T04:08:20;100492.22;;;7.81;98.50
72857;BME280;62742;52.136;4.500;2023-03-26T04:10:47;100492.28;;;7.72;97.70
72857;BME280;62742;52.136;4.500;2023-03-26T04:13:15;100487.16;;;7.62;98.67
72857;BME280;62742;52.136;4.500;2023-03-26T04:15:41;100485.47;;;7.57;99.53
72857;BME280;62742;52.136;4.500;2023-03-26T04:18:08;100473.28;;;7.54;99.64
72857;BME280;62742;52.136;4.500;2023-03-26T04:20:36;100468.06;;;7.51;99.99
72857;BME280;62742;52.136;4.500;2023-03-26T04:23:05;100464.63;;;7.46;100.00
72857;BME280;62742;52.136;4.500;2023-03-26T04:25:33;100459.38;;;7.49;100.00
72857;BME280;62742;52.136;4.500;2023-03-26T04:28:02;100460.81;;;7.81;99.60
72857;BME280;62742;52.136;4.500;2023-03-26T04:30:32;100456.59;;;7.66;98.43
72857;BME280;62742;52.136;4.500;2023-03-26T04:33:00;100450.44;;;7.72;98.90
72857;BME280;62742;52.136;4.500;2023-03-26T04:35:31;100447.59;;;7.93;96.07
72857;BME280;62742;52.136;4.500;2023-03-26T04:38:02;100441.75;;;7.70;97.38
72857;BME280;62742;52.136;4.500;2023-03-26T04:40:31;100439.16;;;7.68;98.01
72857;BME280;62742;52.136;4.500;2023-03-26T04:42:59;100435.69;;;7.64;98.83
72857;BME280;62742;52.136;4.500;2023-03-26T04:45:27;100436.63;;;7.59;98.78
72857;BME280;62742;52.136;4.500;2023-03-26T04:47:55;100428.81;;;7.56;99.06
72857;BME280;62742;52.136;4.500;2023-03-26T04:50:25;100421.91;;;7.52;99.05
72857;BME280;62742;52.136;4.500;2023-03-26T04:52:52;100415.75;;;7.54;99.30
72857;BME280;62742;52.136;4.500;2023-03-26T04:58:09;100412.78;;;7.86;97.48
72857;BME280;62742;52.136;4.500;2023-03-26T05:00:39;100409.94;;;8.07;95.16
72857;BME280;62742;52.136;4.500;2023-03-26T05:03:08;100404.19;;;7.75;96.21
72857;BME280;62742;52.136;4.500;2023-03-26T05:05:36;100401.75;;;7.58;97.53
72857;BME280;62742;52.136;4.500;2023-03-26T05:08:03;100401.88;;;7.46;98.64
72857;BME280;62742;52.136;4.500;2023-03-26T05:10:30;100403.66;;;7.44;98.79
72857;BME280;62742;52.136;4.500;2023-03-26T05:12:56;100399.38;;;7.38;99.20
72857;BME280;62742;52.136;4.500;2023-03-26T05:15:23;100395.00;;;7.39;99.69
72857;BME280;62742;52.136;4.500;2023-03-26T05:17:49;100396.78;;;7.37;99.49
72857;BME280;62742;52.136;4.500;2023-03-26T05:20:17;100389.78;;;7.36;100.00
72857;BME280;62742;52.136;4.500;2023-03-26T05:22:49;100387.97;;;7.45;99.84
72857;BME280;62742;52.136;4.500;2023-03-26T05:25:16;100378.09;;;7.72;97.80
72857;BME280;62742;52.136;4.500;2023-03-26T05:27:43;100379.97;;;7.59;98.00
72857;BME280;62742;52.136;4.500;2023-03-26T05:30:12;100369.63;;;7.50;98.27
72857;BME280;62742;52.136;4.500;2023-03-26T05:32:40;100370.50;;;7.49;98.89
72857;BME280;62742;52.136;4.500;2023-03-26T05:35:07;100363.53;;;7.48;99.33
72857;BME280;62742;52.136;4.500;2023-03-26T05:37:34;100362.63;;;7.54;100.00
72857;BME280;62742;52.136;4.500;2023-03-26T05:40:00;100354.69;;;7.58;99.85
72857;BME280;62742;52.136;4.500;2023-03-26T05:42:26;100356.25;;;7.75;99.26
72857;BME280;62742;52.136;4.500;2023-03-26T05:44:53;100349.06;;;7.92;98.42
72857;BME280;62742;52.136;4.500;2023-03-26T05:47:19;100352.66;;;7.85;97.71
72857;BME280;62742;52.136;4.500;2023-03-26T05:49:45;100348.22;;;7.90;97.83
72857;BME280;62742;52.136;4.500;2023-03-26T05:52:11;100349.06;;;7.92;97.50
72857;BME280;62742;52.136;4.500;2023-03-26T05:54:41;100347.44;;;7.82;98.39
72857;BME280;62742;52.136;4.500;2023-03-26T05:57:07;100342.91;;;7.99;96.71
72857;BME280;62742;52.136;4.500;2023-03-26T05:59:33;100341.78;;;8.14;96.82
72857;BME280;62742;52.136;4.500;2023-03-26T06:02:00;100344.59;;;8.00;96.38
72857;BME280;62742;52.136;4.500;2023-03-26T06:04:26;100345.56;;;7.95;97.36
72857;BME280;62742;52.136;4.500;2023-03-26T06:06:53;100345.31;;;8.15;97.46
72857;BME280;62742;52.136;4.500;2023-03-26T06:09:19;100347.84;;;8.18;96.59
72857;BME280;62742;52.136;4.500;2023-03-26T06:11:46;100340.66;;;8.34;95.85
72857;BME280;62742;52.136;4.500;2023-03-26T06:14:12;100342.78;;;8.05;96.82
72857;BME280;62742;52.136;4.500;2023-03-26T06:16:38;100338.28;;;8.17;96.87
72857;BME280;62742;52.136;4.500;2023-03-26T06:19:04;100341.78;;;8.14;96.54
72857;BME280;62742;52.136;4.500;2023-03-26T06:21:31;100333.09;;;8.14;97.74
72857;BME280;62742;52.136;4.500;2023-03-26T06:23:57;100329.69;;;8.09;98.11
72857;BME280;62742;52.136;4.500;2023-03-26T06:26:23;100326.22;;;8.07;97.86
72857;BME280;62742;52.136;4.500;2023-03-26T06:28:50;100323.38;;;8.23;97.61
72857;BME280;62742;52.136;4.500;2023-03-26T06:31:19;100320.75;;;8.23;97.48
72857;BME280;62742;52.136;4.500;2023-03-26T06:33:45;100323.13;;;8.39;96.34
72857;BME280;62742;52.136;4.500;2023-03-26T06:36:13;100319.72;;;8.35;96.13
72857;BME280;62742;52.136;4.500;2023-03-26T06:38:39;100322.38;;;8.31;96.86
72857;BME280;62742;52.136;4.500;2023-03-26T06:41:05;100318.84;;;8.33;96.87
72857;BME280;62742;52.136;4.500;2023-03-26T06:43:32;100324.03;;;8.36;96.22
72857;BME280;62742;52.136;4.500;2023-03-26T06:45:59;100324.22;;;8.24;97.54
72857;BME280;62742;52.136;4.500;2023-03-26T06:48:26;100331.19;;;8.25;97.48
72857;BME280;62742;52.136;4.500;2023-03-26T06:50:52;100324.00;;;8.42;97.35
72857;BME280;62742;52.136;4.500;2023-03-26T06:53:18;100332.78;;;8.35;97.27
72857;BME280;62742;52.136;4.500;2023-03-26T06:55:45;100331.81;;;8.41;97.11
72857;BME280;62742;52.136;4.500;2023-03-26T06:58:11;100331.88;;;8.38;97.50
72857;BME280;62742;52.136;4.500;2023-03-26T07:00:38;100329.84;;;8.58;96.85
72857;BME280;62742;52.136;4.500;2023-03-26T07:03:04;100328.94;;;8.61;95.46
72857;BME280;62742;52.136;4.500;2023-03-26T07:05:30;100334.06;;;8.67;94.72
72857;BME280;62742;52.136;4.500;2023-03-26T07:07:57;100334.78;;;8.77;95.65
72857;BME280;62742;52.136;4.500;2023-03-26T07:10:23;100332.34;;;8.66;95.21
72857;BME280;62742;52.136;4.500;2023-03-26T07:12:49;100330.53;;;8.71;95.19
72857;BME280;62742;52.136;4.500;2023-03-26T07:15:16;100328.00;;;8.64;95.24
72857;BME280;62742;52.136;4.500;2023-03-26T07:17:42;100324.69;;;8.52;95.96
72857;BME280;62742;52.136;4.500;2023-03-26T07:20:08;100333.63;;;8.37;97.04
72857;BME280;62742;52.136;4.500;2023-03-26T07:22:35;100329.81;;;8.60;96.14
72857;BME280;62742;52.136;4.500;2023-03-26T07:25:02;100320.28;;;8.56;96.57
72857;BME280;62742;52.136;4.500;2023-03-26T07:27:43;100326.31;;;8.61;95.84
72857;BME280;62742;52.136;4.500;2023-03-26T07:30:23;100324.63;;;8.57;97.18
72857;BME280;62742;52.136;4.500;2023-03-26T07:32:54;100328.63;;;8.79;95.19
72857;BME280;62742;52.136;4.500;2023-03-26T07:38:13;100329.59;;;8.74;95.89
72857;BME280;62742;52.136;4.500;2023-03-26T07:41:05;100328.78;;;8.70;96.20
72857;BME280;62742;52.136;4.500;2023-03-26T07:44:06;100326.00;;;8.79;94.69
72857;BME280;62742;52.136;4.500;2023-03-26T07:46:47;100317.44;;;8.70;95.30
72857;BME280;62742;52.136;4.500;2023-03-26T07:49:18;100319.38;;;8.58;95.47
72857;BME280;62742;52.136;4.500;2023-03-26T07:51:45;100320.03;;;8.71;94.95
72857;BME280;62742;52.136;4.500;2023-03-26T07:54:12;100316.56;;;8.69;94.09
72857;BME280;62742;52.136;4.500;2023-03-26T07:56:45;100316.03;;;8.47;95.63
72857;BME280;62742;52.136;4.500;2023-03-26T08:12:45;100312.50;;;8.51;96.23
72857;BME280;62742;52.136;4.500;2023-03-26T08:15:32;100319.63;;;8.38;96.46
72857;BME280;62742;52.136;4.500;2023-03-26T08:18:10;100320.53;;;8.37;96.92
72857;BME280;62742;52.136;4.500;2023-03-26T08:20:47;100322.25;;;8.38;97.16
72857;BME280;62742;52.136;4.500;2023-03-26T08:23:19;100318.75;;;8.41;96.63
72857;BME280;62742;52.136;4.500;2023-03-26T08:26:05;100314.59;;;8.26;97.37
72857;BME280;62742;52.136;4.500;2023-03-26T08:28:44;100317.97;;;8.33;97.23
72857;BME280;62742;52.136;4.500;2023-03-26T08:31:23;100317.22;;;8.24;97.82
72857;BME280;62742;52.136;4.500;2023-03-26T08:33:57;100316.44;;;8.19;97.56
72857;BME280;62742;52.136;4.500;2023-03-26T08:36:24;100318.13;;;8.23;97.89
72857;BME280;62742;52.136;4.500;2023-03-26T08:38:51;100319.75;;;8.31;97.54
72857;BME280;62742;52.136;4.500;2023-03-26T08:44:20;100323.50;;;8.13;97.23
72857;BME280;62742;52.136;4.500;2023-03-26T08:58:19;100321.03;;;8.03;95.57
72857;BME280;62742;52.136;4.500;2023-03-26T09:07:00;100330.06;;;7.79;95.88
72857;BME280;62742;52.136;4.500;2023-03-26T09:12:59;100340.44;;;7.85;96.36
72857;BME280;62742;52.136;4.500;2023-03-26T09:15:37;100345.53;;;7.96;95.51
72857;BME280;62742;52.136;4.500;2023-03-26T09:21:36;100349.88;;;7.97;96.80
72857;BME280;62742;52.136;4.500;2023-03-26T09:32:58;100361.25;;;7.95;95.53
72857;BME280;62742;52.136;4.500;2023-03-26T09:39:37;100360.22;;;8.08;93.46
72857;BME280;62742;52.136;4.500;2023-03-26T09:50:43;100355.69;;;8.19;92.36
72857;BME280;62742;52.136;4.500;2023-03-26T09:56:31;100363.75;;;8.04;92.95
72857;BME280;62742;52.136;4.500;2023-03-26T10:02:20;100376.03;;;7.97;91.93
72857;BME280;62742;52.136;4.500;2023-03-26T10:35:18;100404.72;;;8.07;87.24
72857;BME280;62742;52.136;4.500;2023-03-26T10:37:49;100410.81;;;8.07;85.29
72857;BME280;62742;52.136;4.500;2023-03-26T10:40:34;100404.81;;;7.97;85.43
72857;BME280;62742;52.136;4.500;2023-03-26T10:51:49;100430.25;;;7.86;85.27
72857;BME280;62742;52.136;4.500;2023-03-26T10:54:34;100420.66;;;7.86;83.61
72857;BME280;62742;52.136;4.500;2023-03-26T10:57:18;100431.09;;;7.88;85.06
72857;BME280;62742;52.136;4.500;2023-03-26T10:59:54;100432.91;;;7.81;85.53
72857;BME280;62742;52.136;4.500;2023-03-26T11:02:27;100440.22;;;7.50;84.72
72857;BME280;62742;52.136;4.500;2023-03-26T11:07:43;100436.38;;;7.82;85.80
72857;BME280;62742;52.136;4.500;2023-03-26T11:13:17;100447.59;;;7.95;84.20
72857;BME280;62742;52.136;4.500;2023-03-26T11:15:51;100455.13;;;8.21;83.43
72857;BME280;62742;52.136;4.500;2023-03-26T11:23:51;100445.59;;;8.84;82.15
72857;BME280;62742;52.136;4.500;2023-03-26T11:26:24;100455.22;;;8.83;79.31
72857;BME280;62742;52.136;4.500;2023-03-26T11:32:01;100473.19;;;8.46;78.29
72857;BME280;62742;52.136;4.500;2023-03-26T11:34:34;100470.47;;;8.52;78.80
72857;BME280;62742;52.136;4.500;2023-03-26T11:37:05;100464.13;;;8.70;76.63
72857;BME280;62742;52.136;4.500;2023-03-26T11:39:44;100469.47;;;8.62;77.43
72857;BME280;62742;52.136;4.500;2023-03-26T11:42:16;100475.19;;;8.89;76.97
72857;BME280;62742;52.136;4.500;2023-03-26T11:44:50;100481.03;;;9.06;78.86
72857;BME280;62742;52.136;4.500;2023-03-26T11:47:22;100476.56;;;9.14;76.16
72857;BME280;62742;52.136;4.500;2023-03-26T11:49:55;100484.69;;;8.97;74.65
72857;BME280;62742;52.136;4.500;2023-03-26T11:52:25;100494.16;;;8.39;76.16
72857;BME280;62742;52.136;4.500;2023-03-26T11:54:52;100492.59;;;8.93;76.45
72857;BME280;62742;52.136;4.500;2023-03-26T11:57:19;100485.63;;;8.93;73.82
72857;BME280;62742;52.136;4.500;2023-03-26T11:59:55;100493.03;;;8.62;73.87
72857;BME280;62742;52.136;4.500;2023-03-26T12:02:43;100505.88;;;8.80;73.97
72857;BME280;62742;52.136;4.500;2023-03-26T12:05:15;100508.31;;;8.93;72.92
72857;BME280;62742;52.136;4.500;2023-03-26T12:10:22;100508.91;;;9.12;72.90
72857;BME280;62742;52.136;4.500;2023-03-26T12:12:55;100508.13;;;9.05;71.67
72857;BME280;62742;52.136;4.500;2023-03-26T12:15:25;100508.88;;;9.13;71.68
72857;BME280;62742;52.136;4.500;2023-03-26T12:17:54;100512.28;;;9.20;70.20
72857;BME280;62742;52.136;4.500;2023-03-26T12:22:56;100517.28;;;9.37;70.00
72857;BME280;62742;52.136;4.500;2023-03-26T12:25:25;100515.50;;;9.38;71.64
72857;BME280;62742;52.136;4.500;2023-03-26T12:28:15;100513.22;;;9.16;68.61
72857;BME280;62742;52.136;4.500;2023-03-26T12:30:50;100522.63;;;9.31;68.22
72857;BME280;62742;52.136;4.500;2023-03-26T12:33:32;100524.06;;;9.49;67.72
72857;BME280;62742;52.136;4.500;2023-03-26T12:36:16;100529.38;;;9.46;68.33
72857;BME280;62742;52.136;4.500;2023-03-26T12:38:51;100526.97;;;9.83;68.33
72857;BME280;62742;52.136;4.500;2023-03-26T12:41:19;100534.59;;;9.97;68.51
72857;BME280;62742;52.136;4.500;2023-03-26T12:44:13;100533.69;;;10.01;66.15
72857;BME280;62742;52.136;4.500;2023-03-26T12:46:42;100533.63;;;10.51;67.75
72857;BME280;62742;52.136;4.500;2023-03-26T12:49:12;100540.09;;;10.33;65.71
72857;BME280;62742;52.136;4.500;2023-03-26T12:51:41;100549.38;;;10.51;66.38
72857;BME280;62742;52.136;4.500;2023-03-26T12:54:26;100547.16;;;10.75;64.78
72857;BME280;62742;52.136;4.500;2023-03-26T12:57:32;100557.03;;;10.17;64.45
72857;BME280;62742;52.136;4.500;2023-03-26T13:03:10;100556.91;;;10.21;65.51
72857;BME280;62742;52.136;4.500;2023-03-26T13:05:56;100560.22;;;10.78;64.57
72857;BME280;62742;52.136;4.500;2023-03-26T13:11:41;100569.31;;;10.15;63.77
72857;BME280;62742;52.136;4.500;2023-03-26T13:17:36;100569.38;;;10.58;63.96
72857;BME280;62742;52.136;4.500;2023-03-26T13:20:18;100564.69;;;10.27;64.78
72857;BME280;62742;52.136;4.500;2023-03-26T13:23:01;100573.13;;;9.97;63.29
72857;BME280;62742;52.136;4.500;2023-03-26T13:34:16;100577.19;;;10.61;61.71
72857;BME280;62742;52.136;4.500;2023-03-26T13:42:23;100594.28;;;10.39;60.44
72857;BME280;62742;52.136;4.500;2023-03-26T13:45:13;100592.22;;;10.98;62.98
72857;BME280;62742;52.136;4.500;2023-03-26T13:47:58;100598.44;;;10.93;60.49
72857;BME280;62742;52.136;4.500;2023-03-26T13:50:29;100597.47;;;10.98;58.75
72857;BME280;62742;52.136;4.500;2023-03-26T13:53:03;100594.53;;;11.12;60.44
72857;BME280;62742;52.136;4.500;2023-03-26T13:55:34;100600.94;;;11.00;60.94
72857;BME280;62742;52.136;4.500;2023-03-26T14:05:57;100610.00;;;10.40;61.55
72857;BME280;62742;52.136;4.500;2023-03-26T14:11:00;100627.50;;;9.88;61.56
72857;BME280;62742;52.136;4.500;2023-03-26T14:16:37;100634.50;;;9.89;61.82
72857;BME280;62742;52.136;4.500;2023-03-26T14:19:17;100640.47;;;9.99;61.77
72857;BME280;62742;52.136;4.500;2023-03-26T14:22:26;100642.91;;;10.10;61.86
72857;BME280;62742;52.136;4.500;2023-03-26T14:42:34;100677.91;;;10.09;60.65
72857;BME280;62742;52.136;4.500;2023-03-26T14:48:04;100683.16;;;9.51;60.22
72857;BME280;62742;52.136;4.500;2023-03-26T14:53:46;100690.53;;;9.85;59.55
72857;BME280;62742;52.136;4.500;2023-03-26T15:13:54;100727.78;;;9.48;57.25
72857;BME280;62742;52.136;4.500;2023-03-26T15:31:29;100773.06;;;8.87;57.99
72857;BME280;62742;52.136;4.500;2023-03-26T15:42:44;100798.38;;;8.85;59.08
72857;BME280;62742;52.136;4.500;2023-03-26T15:45:43;100808.75;;;8.98;56.89
72857;BME280;62742;52.136;4.500;2023-03-26T15:48:19;100800.13;;;8.87;55.60
72857;BME280;62742;52.136;4.500;2023-03-26T15:51:13;100816.22;;;8.36;55.76
72857;BME280;62742;52.136;4.500;2023-03-26T16:02:45;100831.72;;;8.67;54.77
72857;BME280;62742;52.136;4.500;2023-03-26T16:08:33;100843.28;;;8.35;56.73
72857;BME280;62742;52.136;4.500;2023-03-26T16:16:59;100874.03;;;7.95;58.77
72857;BME280;62742;52.136;4.500;2023-03-26T16:22:36;100877.50;;;8.01;57.90
72857;BME280;62742;52.136;4.500;2023-03-26T16:27:43;100893.34;;;7.52;59.74
72857;BME280;62742;52.136;4.500;2023-03-26T16:30:13;100904.63;;;7.70;60.57
72857;BME280;62742;52.136;4.500;2023-03-26T16:32:55;100908.16;;;7.58;60.18
72857;BME280;62742;52.136;4.500;2023-03-26T16:47:41;100933.38;;;7.79;60.04
72857;BME280;62742;52.136;4.500;2023-03-26T16:56:11;100963.06;;;7.59;59.20
72857;BME280;62742;52.136;4.500;2023-03-26T17:01:23;100972.63;;;7.63;58.28
72857;BME280;62742;52.136;4.500;2023-03-26T17:03:57;100968.28;;;7.58;57.11
72857;BME280;62742;52.136;4.500;2023-03-26T17:11:53;100984.00;;;7.45;56.82
72857;BME280;62742;52.136;4.500;2023-03-26T17:15:01;100990.09;;;7.41;55.96
72857;BME280;62742;52.136;4.500;2023-03-26T17:20:33;101001.41;;;7.36;56.99
72857;BME280;62742;52.136;4.500;2023-03-26T17:31:50;101016.25;;;7.55;57.24
72857;BME280;62742;52.136;4.500;2023-03-26T17:44:51;101056.31;;;7.29;58.59
72857;BME280;62742;52.136;4.500;2023-03-26T17:47:39;101060.66;;;7.34;58.95
72857;BME280;62742;52.136;4.500;2023-03-26T17:50:20;101059.78;;;7.38;58.73
72857;BME280;62742;52.136;4.500;2023-03-26T17:52:55;101074.53;;;7.03;60.70
72857;BME280;62742;52.136;4.500;2023-03-26T17:55:28;101074.59;;;7.14;58.70
72857;BME280;62742;52.136;4.500;2023-03-26T17:58:00;101083.25;;;6.99;60.82
72857;BME280;62742;52.136;4.500;2023-03-26T18:00:53;101103.28;;;7.06;60.02
72857;BME280;62742;52.136;4.500;2023-03-26T18:03:46;101104.19;;;7.13;60.66
72857;BME280;62742;52.136;4.500;2023-03-26T18:06:17;101120.69;;;7.01;59.77
72857;BME280;62742;52.136;4.500;2023-03-26T18:17:12;101137.97;;;6.68;60.50
72857;BME280;62742;52.136;4.500;2023-03-26T18:19:49;101143.06;;;6.48;60.06
72857;BME280;62742;52.136;4.500;2023-03-26T18:22:19;101145.75;;;6.59;60.71
72857;BME280;62742;52.136;4.500;2023-03-26T18:24:54;101156.19;;;6.61;60.40
72857;BME280;62742;52.136;4.500;2023-03-26T18:27:24;101164.91;;;6.58;59.79
72857;BME280;62742;52.136;4.500;2023-03-26T18:30:08;101167.44;;;6.50;60.62
72857;BME280;62742;52.136;4.500;2023-03-26T18:32:45;101166.53;;;6.45;61.45
72857;BME280;62742;52.136;4.500;2023-03-26T18:35:18;101169.00;;;6.21;61.06
72857;BME280;62742;52.136;4.500;2023-03-26T18:37:47;101177.78;;;6.35;62.51
72857;BME280;62742;52.136;4.500;2023-03-26T18:40:17;101190.13;;;6.54;60.37
72857;BME280;62742;52.136;4.500;2023-03-26T18:42:46;101191.72;;;6.39;61.43
72857;BME280;62742;52.136;4.500;2023-03-26T18:48:04;101205.69;;;6.45;58.95
72857;BME280;62742;52.136;4.500;2023-03-26T18:50:38;101217.69;;;6.23;60.22
72857;BME280;62742;52.136;4.500;2023-03-26T18:53:16;101222.88;;;6.17;60.28
72857;BME280;62742;52.136;4.500;2023-03-26T18:55:46;101226.31;;;6.10;60.46
72857;BME280;62742;52.136;4.500;2023-03-26T18:58:31;101233.28;;;6.14;60.57
72857;BME280;62742;52.136;4.500;2023-03-26T19:01:03;101237.59;;;6.09;59.88
72857;BME280;62742;52.136;4.500;2023-03-26T19:03:33;101237.50;;;6.01;60.08
72857;BME280;62742;52.136;4.500;2023-03-26T19:06:02;101244.34;;;5.90;61.06
72857;BME280;62742;52.136;4.500;2023-03-26T19:08:33;101248.66;;;5.89;61.60